Time;durP1;ratioP1;P1;durP2;ratioP2;P2;SDS_P1;SDS_P2;PMS_P1;PMS_P2;Temp;Humidity;BMP_temperature;BMP_pressure;BME280_temperature;BME280_humidity;BME280_pressure;Samples;Min_cycle;Max_cycle;Signal;HPM_P1;HPM_P2
2022/06/30 07:07:44;;;;;;;2.85;1.00;;;28.50;93.70;;;;;;4898303;29;20630;-76
2022/06/30 07:10:11;;;;;;;2.00;1.00;;;28.70;93.90;;;;;;4900575;29;20221;-74
2022/06/30 07:12:39;;;;;;;1.40;0.95;;;28.20;94.10;;;;;;4899039;29;20724;-74
2022/06/30 07:15:07;;;;;;;2.35;0.90;;;28.00;94.10;;;;;;4900396;29;20217;-74
2022/06/30 07:17:36;;;;;;;1.98;0.80;;;28.00;94.60;;;;;;4896290;29;20325;-76
2022/06/30 07:20:03;;;;;;;3.25;0.77;;;28.10;94.60;;;;;;4897707;29;20206;-67
2022/06/30 07:22:30;;;;;;;2.78;0.90;;;28.80;93.80;;;;;;4899600;29;20709;-77
2022/06/30 07:24:58;;;;;;;3.53;0.77;;;29.10;93.40;;;;;;4899655;29;20207;-78
2022/06/30 07:27:25;;;;;;;2.00;0.98;;;29.00;93.40;;;;;;4899793;29;20229;-77
2022/06/30 07:29:52;;;;;;;1.42;0.75;;;29.20;93.20;;;;;;4881587;29;20587;-76
2022/06/30 07:32:19;;;;;;;1.55;0.93;;;29.60;92.90;;;;;;4880619;29;20752;-73
2022/06/30 07:34:46;;;;;;;1.75;0.80;;;30.00;92.80;;;;;;4880735;29;20211;-76
2022/06/30 07:37:13;;;;;;;2.92;1.00;;;30.00;92.00;;;;;;4881367;29;20211;-72
2022/06/30 07:39:40;;;;;;;2.33;0.90;;;30.30;92.10;;;;;;4898465;29;20206;-75
2022/06/30 07:42:08;;;;;;;2.13;0.80;;;30.10;92.60;;;;;;4898337;29;20709;-78
2022/06/30 07:44:35;;;;;;;2.35;0.90;;;30.30;92.20;;;;;;4897747;29;20218;-75
2022/06/30 07:47:02;;;;;;;4.63;1.00;;;30.10;92.30;;;;;;4898354;29;20300;-76
2022/06/30 07:49:29;;;;;;;2.85;0.80;;;29.80;92.20;;;;;;4897944;29;20218;-78
2022/06/30 07:51:56;;;;;;;1.98;0.88;;;29.60;92.50;;;;;;4897849;29;20488;-77
2022/06/30 07:54:23;;;;;;;1.70;0.80;;;28.40;93.50;;;;;;4898293;29;20558;-76
2022/06/30 07:56:49;;;;;;;1.27;0.70;;;28.10;93.60;;;;;;4897941;29;20221;-79
2022/06/30 07:59:18;;;;;;;2.85;1.05;;;28.30;94.40;;;;;;4897379;29;20555;-79
2022/06/30 08:01:44;;;;;;;2.42;0.73;;;28.20;94.40;;;;;;4898128;29;20238;-84
2022/06/30 08:04:11;;;;;;;0.95;0.80;;;28.20;93.30;;;;;;4898302;29;20669;-79
2022/06/30 08:06:38;;;;;;;1.63;0.60;;;28.70;94.00;;;;;;4896673;29;20226;-75
2022/06/30 08:09:05;;;;;;;1.05;0.60;;;29.40;92.90;;;;;;4897774;29;20565;-82
2022/06/30 08:11:32;;;;;;;1.20;0.70;;;28.60;93.70;;;;;;4898385;29;20698;-82
2022/06/30 08:13:59;;;;;;;2.20;0.75;;;29.00;93.60;;;;;;4898810;29;20207;-78
2022/06/30 08:16:27;;;;;;;1.50;0.80;;;29.00;93.60;;;;;;4915842;29;20565;-78
2022/06/30 08:18:54;;;;;;;1.27;0.60;;;29.10;93.80;;;;;;4903665;29;20210;-79
2022/06/30 08:21:21;;;;;;;1.83;0.90;;;28.90;93.50;;;;;;4898548;29;20210;-79
2022/06/30 08:23:48;;;;;;;1.77;1.00;;;28.40;93.30;;;;;;4898322;29;20241;-76
2022/06/30 08:26:15;;;;;;;2.13;0.90;;;28.40;93.60;;;;;;4898711;29;20577;-77
2022/06/30 08:28:41;;;;;;;1.33;0.80;;;28.00;94.00;;;;;;4898771;29;20206;-77
2022/06/30 08:31:08;;;;;;;2.83;0.75;;;27.20;94.90;;;;;;4898860;29;20210;-77
2022/06/30 08:33:36;;;;;;;3.08;0.88;;;26.80;96.10;;;;;;4898508;29;20242;-75
2022/06/30 08:36:04;;;;;;;3.83;0.90;;;27.20;96.10;;;;;;4898542;29;20210;-77
2022/06/30 08:38:31;;;;;;;1.60;0.70;;;27.40;95.40;;;;;;4898209;29;20210;-79
2022/06/30 08:43:44;;;;;;;2.78;1.30;;;28.30;94.90;;;;;;4898077;29;20245;-78
2022/06/30 08:46:12;;;;;;;1.92;0.88;;;28.00;94.70;;;;;;4898268;29;20211;-76
2022/06/30 08:48:40;;;;;;;2.65;0.80;;;28.00;94.60;;;;;;4898224;29;20214;-77
2022/06/30 08:51:08;;;;;;;1.65;0.82;;;28.50;94.90;;;;;;4898182;29;20304;-66
2022/06/30 08:53:40;;;;;;;3.33;1.13;;;28.30;94.60;;;;;;4897990;29;20621;-74
2022/06/30 08:56:07;;;;;;;1.65;0.82;;;28.50;94.10;;;;;;4898106;29;20681;-82
2022/06/30 08:58:35;;;;;;;1.10;0.90;;;28.20;94.60;;;;;;4898669;29;20305;-74
2022/06/30 09:01:02;;;;;;;1.30;0.73;;;28.40;94.10;;;;;;4895123;29;20206;-75
2022/06/30 09:03:29;;;;;;;2.20;0.95;;;28.10;95.50;;;;;;4896235;29;20234;-78
2022/06/30 09:05:58;;;;;;;2.13;0.80;;;28.30;95.20;;;;;;4898040;29;20545;-80
2022/06/30 09:08:26;;;;;;;1.60;0.77;;;28.40;94.60;;;;;;4898446;29;20210;-68
2022/06/30 09:10:54;;;;;;;3.78;0.73;;;28.70;94.30;;;;;;4898424;29;20299;-75
2022/06/30 09:13:22;;;;;;;1.00;0.70;;;29.00;94.40;;;;;;4897959;29;20246;-72
2022/06/30 09:15:49;;;;;;;4.88;0.95;;;28.70;94.50;;;;;;4898141;29;20214;-63
2022/06/30 09:18:26;;;;;;;2.13;0.90;;;28.20;94.50;;;;;;4898217;29;20210;-68
2022/06/30 09:20:54;;;;;;;1.25;0.65;;;27.70;95.20;;;;;;4898115;29;20216;-76
2022/06/30 09:23:24;;;;;;;3.97;1.05;;;27.70;95.70;;;;;;4897697;29;20325;-76
2022/06/30 09:25:53;;;;;;;1.17;0.60;;;26.90;95.40;;;;;;4897524;29;20241;-71
2022/06/30 09:28:41;;;;;;;1.38;0.57;;;26.70;95.80;;;;;;4897676;29;20569;-72
2022/06/30 09:31:09;;;;;;;3.95;0.77;;;26.40;96.60;;;;;;4897863;29;20666;-77
2022/06/30 09:33:39;;;;;;;2.15;0.70;;;26.30;96.60;;;;;;4897681;29;20245;-70
2022/06/30 09:36:26;;;;;;;3.25;0.80;;;26.40;96.50;;;;;;4897101;29;20542;-66
2022/06/30 09:39:02;;;;;;;1.67;0.73;;;26.60;96.10;;;;;;4893812;29;20217;-64
2022/06/30 09:41:30;;;;;;;1.80;0.68;;;26.30;96.50;;;;;;4896782;29;20301;-67
2022/06/30 09:43:57;;;;;;;1.33;0.70;;;26.20;96.70;;;;;;4896624;29;20313;-65
2022/06/30 09:46:24;;;;;;;2.53;1.10;;;25.80;97.10;;;;;;4896370;29;20219;-66
2022/06/30 09:48:52;;;;;;;1.98;0.70;;;25.40;97.20;;;;;;4896602;29;20297;-70
2022/06/30 09:51:19;;;;;;;2.30;0.55;;;25.30;97.50;;;;;;4896701;29;20214;-70
2022/06/30 09:54:07;;;;;;;1.60;0.85;;;25.00;97.70;;;;;;4895710;29;20237;-75
2022/06/30 09:56:34;;;;;;;2.00;0.70;;;24.70;98.20;;;;;;4896624;29;20297;-65
2022/06/30 09:59:01;;;;;;;2.22;0.60;;;24.50;98.70;;;;;;4896337;29;20321;-74
2022/06/30 10:01:28;;;;;;;2.00;0.77;;;24.40;99.00;;;;;;4896052;29;20214;-68
2022/06/30 10:03:59;;;;;;;1.60;0.60;;;24.20;99.30;;;;;;4896441;29;20254;-74
2022/06/30 10:06:27;;;;;;;2.97;0.75;;;24.00;99.90;;;;;;4896317;29;20218;-70
2022/06/30 10:08:55;;;;;;;1.25;0.77;;;24.20;99.90;;;;;;4895504;29;20686;-72
2022/06/30 10:11:24;;;;;;;1.08;0.60;;;24.10;99.70;;;;;;4896374;29;20206;-70
2022/06/30 10:13:52;;;;;;;1.88;0.68;;;23.90;99.90;;;;;;4896332;29;20334;-68
2022/06/30 10:16:21;;;;;;;2.75;0.82;;;23.80;99.90;;;;;;4895838;29;20214;-71
2022/06/30 10:18:49;;;;;;;2.85;0.80;;;23.70;99.90;;;;;;4896703;29;20225;-67
2022/06/30 10:21:17;;;;;;;0.95;0.63;;;23.60;99.90;;;;;;4896175;29;20214;-65
2022/06/30 10:23:44;;;;;;;4.43;1.02;;;23.20;99.90;;;;;;4895745;29;20238;-65
2022/06/30 10:27:12;;;;;;;1.10;0.60;;;23.00;99.90;;;;;;4896372;29;20206;-67
2022/06/30 10:29:00;;;;;;;3.00;0.57;;;22.90;99.90;;;;;;4897287;29;20214;-73
2022/06/30 10:31:34;;;;;;;3.30;0.98;;;22.70;99.90;;;;;;4897565;29;20217;-64
2022/06/30 10:34:08;;;;;;;0.85;0.50;;;22.70;99.90;;;;;;4897349;29;20328;-68
2022/06/30 10:36:43;;;;;;;1.38;0.38;;;22.70;99.90;;;;;;4897374;29;20210;-71
2022/06/30 10:39:19;;;;;;;0.45;0.40;;;22.50;99.90;;;;;;4897343;29;20577;-67
2022/06/30 10:41:47;;;;;;;0.60;0.45;;;22.40;99.90;;;;;;4897339;29;20234;-72
2022/06/30 10:44:21;;;;;;;0.75;0.47;;;22.40;99.90;;;;;;4897205;29;20297;-69
2022/06/30 10:47:08;;;;;;;0.80;0.30;;;22.40;99.90;;;;;;4898488;29;20243;-67
2022/06/30 10:49:52;;;;;;;2.70;0.32;;;22.20;99.90;;;;;;4900498;29;20214;-70
2022/06/30 10:52:24;;;;;;;2.25;0.40;;;22.20;99.90;;;;;;4900233;29;20612;-71
2022/06/30 10:55:01;;;;;;;1.23;0.40;;;22.10;99.90;;;;;;4900509;29;20305;-70
2022/06/30 10:57:28;;;;;;;1.85;0.65;;;22.20;99.90;;;;;;4900604;29;20224;-69
2022/06/30 10:59:56;;;;;;;1.85;0.50;;;22.30;99.90;;;;;;4900474;29;20637;-67
2022/06/30 11:02:25;;;;;;;0.95;0.50;;;22.50;99.90;;;;;;4900094;29;20234;-70
2022/06/30 11:05:22;;;;;;;2.40;0.60;;;22.70;99.90;;;;;;4900336;29;20214;-72
2022/06/30 11:07:49;;;;;;;3.13;0.70;;;23.00;99.90;;;;;;4900000;29;20573;-72
2022/06/30 11:10:21;;;;;;;0.60;0.40;;;23.10;99.90;;;;;;4900539;29;20217;-68
2022/06/30 11:13:04;;;;;;;3.15;0.60;;;23.10;99.90;;;;;;4900196;29;20337;-73
2022/06/30 11:15:53;;;;;;;1.20;0.47;;;23.00;99.90;;;;;;4900202;29;20210;-68
2022/06/30 11:18:21;;;;;;;1.23;0.60;;;22.90;99.90;;;;;;4900054;29;20246;-68
2022/06/30 11:20:49;;;;;;;3.53;0.70;;;22.80;99.90;;;;;;4899758;29;20222;-71
2022/06/30 11:23:19;;;;;;;1.15;0.55;;;22.80;99.90;;;;;;4899947;29;20234;-74
2022/06/30 11:28:34;;;;;;;1.38;0.50;;;22.70;99.90;;;;;;4899964;29;20209;-73
2022/06/30 11:31:02;;;;;;;1.33;0.70;;;22.60;99.90;;;;;;4899934;29;20221;-70
2022/06/30 11:33:29;;;;;;;3.20;0.60;;;22.40;99.90;;;;;;4897880;29;20246;-66
2022/06/30 11:36:07;;;;;;;3.40;0.60;;;22.40;99.90;;;;;;4897677;29;20214;-66
2022/06/30 11:38:34;;;;;;;1.83;0.60;;;22.30;99.90;;;;;;4899884;29;20203;-70
2022/06/30 11:43:43;;;;;;;0.90;0.50;;;22.40;99.90;;;;;;4868367;29;20280;-72
2022/06/30 11:46:11;;;;;;;4.35;0.85;;;22.30;99.90;;;;;;4899754;29;20206;-71
2022/06/30 11:48:38;;;;;;;2.50;0.50;;;22.20;99.90;;;;;;4899817;29;20678;-70
2022/06/30 11:51:10;;;;;;;2.58;1.02;;;22.10;99.90;;;;;;4899740;29;20211;-70
2022/06/30 11:53:38;;;;;;;1.05;0.50;;;21.90;99.90;;;;;;4899453;29;20605;-66
2022/06/30 11:56:05;;;;;;;2.42;0.57;;;21.70;99.90;;;;;;4899616;29;20213;-69
2022/06/30 11:58:32;;;;;;;0.70;0.40;;;21.70;99.90;;;;;;4899005;29;20257;-69
2022/06/30 12:00:59;;;;;;;1.35;0.50;;;21.90;99.90;;;;;;4899934;29;20210;-68
2022/06/30 12:03:27;;;;;;;0.80;0.40;;;21.90;99.90;;;;;;4899620;29;20306;-69
2022/06/30 12:05:55;;;;;;;1.50;0.45;;;21.90;99.90;;;;;;4899533;29;20219;-69
2022/06/30 12:08:23;;;;;;;0.98;0.50;;;21.70;99.90;;;;;;4899422;29;20234;-67
2022/06/30 12:10:50;;;;;;;1.30;0.50;;;21.80;99.90;;;;;;4899475;29;20207;-69
2022/06/30 12:13:19;;;;;;;2.20;0.60;;;22.10;99.90;;;;;;4899255;29;20293;-70
2022/06/30 12:15:47;;;;;;;1.13;0.43;;;22.30;99.90;;;;;;4899423;29;20238;-68
2022/06/30 12:18:14;;;;;;;2.40;0.45;;;22.60;99.90;;;;;;4899257;29;20210;-68
2022/06/30 12:20:43;;;;;;;3.58;0.45;;;23.00;99.90;;;;;;4899315;29;20272;-71
2022/06/30 12:23:12;;;;;;;0.88;0.50;;;23.10;99.90;;;;;;4899134;29;20234;-74
2022/06/30 12:25:39;;;;;;;0.50;0.40;;;23.30;99.90;;;;;;4899241;29;20210;-67
2022/06/30 12:28:06;;;;;;;1.20;0.40;;;23.30;99.90;;;;;;4899162;29;20215;-73
2022/06/30 12:30:35;;;;;;;1.83;0.50;;;23.20;99.90;;;;;;4899076;29;20569;-69
2022/06/30 12:33:04;;;;;;;1.98;0.52;;;23.10;99.90;;;;;;4898932;29;20634;-73
2022/06/30 12:35:32;;;;;;;2.10;0.47;;;22.80;99.90;;;;;;4898977;29;20688;-69
2022/06/30 12:38:11;;;;;;;2.78;0.47;;;22.40;99.90;;;;;;4895551;29;20211;-64
2022/06/30 12:40:40;;;;;;;1.20;0.63;;;22.30;99.90;;;;;;4898063;29;20281;-70
2022/06/30 12:43:08;;;;;;;0.60;0.50;;;22.20;99.90;;;;;;4898623;29;20750;-65
2022/06/30 12:45:45;;;;;;;5.05;1.15;;;21.80;99.90;;;;;;4898581;29;20704;-63
2022/06/30 12:48:14;;;;;;;0.55;0.55;;;21.80;99.90;;;;;;4898658;29;20622;-67
2022/06/30 12:50:43;;;;;;;1.58;0.80;;;21.80;99.90;;;;;;4898667;29;20217;-68
2022/06/30 12:53:19;;;;;;;3.95;0.65;;;21.80;99.90;;;;;;4898761;29;20245;-69
2022/06/30 12:56:01;;;;;;;1.27;0.80;;;21.60;99.90;;;;;;4899010;29;20300;-63
2022/06/30 12:58:42;;;;;;;4.53;1.30;;;21.40;99.90;;;;;;4898708;29;20206;-63
2022/06/30 13:01:09;;;;;;;2.25;1.00;;;21.20;99.90;;;;;;4898645;29;20221;-65
2022/06/30 13:03:48;;;;;;;2.85;1.10;;;21.20;99.90;;;;;;4899309;29;20558;-68
2022/06/30 13:06:15;;;;;;;1.60;1.08;;;21.10;99.90;;;;;;4898300;29;20221;-67
2022/06/30 13:08:46;;;;;;;1.33;0.93;;;21.20;99.90;;;;;;4898528;29;20217;-67
2022/06/30 13:11:15;;;;;;;3.78;1.15;;;21.20;99.90;;;;;;4897601;29;20585;-66
2022/06/30 13:13:43;;;;;;;3.25;1.02;;;21.30;99.90;;;;;;4897986;29;20823;-63
2022/06/30 13:16:10;;;;;;;1.60;0.88;;;21.20;99.90;;;;;;4898391;29;20214;-67
2022/06/30 13:18:37;;;;;;;2.83;1.15;;;21.20;99.90;;;;;;4898209;29;20210;-68
2022/06/30 13:21:04;;;;;;;3.63;1.10;;;21.20;99.90;;;;;;4897988;29;20214;-65
2022/06/30 13:23:30;;;;;;;3.15;1.50;;;21.20;99.90;;;;;;4898081;29;20237;-68
2022/06/30 13:25:59;;;;;;;2.55;1.30;;;21.20;99.90;;;;;;4898052;29;20213;-63
2022/06/30 13:28:25;;;;;;;2.35;1.45;;;21.00;99.90;;;;;;4898177;29;20221;-63
2022/06/30 13:30:52;;;;;;;3.72;1.45;;;20.70;99.90;;;;;;4897918;29;20210;-65
2022/06/30 13:33:19;;;;;;;3.22;1.55;;;20.60;99.90;;;;;;4897849;29;20336;-65
2022/06/30 13:35:46;;;;;;;4.93;1.08;;;20.50;99.90;;;;;;4898049;29;20661;-67
2022/06/30 13:38:13;;;;;;;1.75;0.90;;;20.50;99.90;;;;;;4897937;29;20214;-66
2022/06/30 13:40:40;;;;;;;2.42;1.10;;;20.50;99.90;;;;;;4894287;29;20210;-68
2022/06/30 13:43:08;;;;;;;4.68;0.98;;;20.50;99.90;;;;;;4894568;29;20230;-63
2022/06/30 13:45:35;;;;;;;2.88;0.75;;;20.50;99.90;;;;;;4897817;29;20289;-62
2022/06/30 13:48:02;;;;;;;2.42;1.00;;;20.40;99.90;;;;;;4897636;29;20686;-63
2022/06/30 13:50:29;;;;;;;1.67;0.90;;;20.20;99.90;;;;;;4897643;29;20218;-65
2022/06/30 13:52:56;;;;;;;1.27;0.90;;;20.10;99.90;;;;;;4889007;29;20321;-66
2022/06/30 13:55:23;;;;;;;1.08;0.90;;;20.10;99.90;;;;;;4878737;29;20328;-64
2022/06/30 13:57:50;;;;;;;2.47;0.90;;;20.10;99.90;;;;;;4879006;29;20211;-66
2022/06/30 14:00:18;;;;;;;1.40;1.07;;;20.00;99.90;;;;;;4893836;29;20220;-63
2022/06/30 14:02:45;;;;;;;3.27;1.33;;;19.90;99.90;;;;;;4897435;29;20234;-65
2022/06/30 14:05:12;;;;;;;2.50;1.20;;;19.60;99.90;;;;;;4897393;29;20214;-63
2022/06/30 14:07:39;;;;;;;2.27;1.10;;;19.30;99.90;;;;;;4896919;29;20222;-73
2022/06/30 14:10:08;;;;;;;2.03;1.00;;;19.20;99.90;;;;;;4897598;29;20297;-66
2022/06/30 14:12:35;;;;;;;1.70;0.97;;;18.90;99.90;;;;;;4897143;29;20706;-70
2022/06/30 14:15:02;;;;;;;1.00;0.77;;;18.50;99.90;;;;;;4897330;29;20336;-67
2022/06/30 14:17:31;;;;;;;2.10;0.90;;;18.30;99.90;;;;;;4897598;29;20206;-64
2022/06/30 14:19:58;;;;;;;3.00;0.67;;;18.20;99.90;;;;;;4897629;29;20674;-65
2022/06/30 14:22:24;;;;;;;8.53;1.80;;;18.10;99.90;;;;;;4899081;29;20325;-65
2022/06/30 14:24:51;;;;;;;0.93;0.67;;;18.00;99.90;;;;;;4901207;29;20308;-64
2022/06/30 14:27:18;;;;;;;0.70;0.50;;;17.80;99.90;;;;;;4901162;29;20210;-67
2022/06/30 14:29:45;;;;;;;2.87;0.60;;;17.70;99.90;;;;;;4900998;29;20206;-66
2022/06/30 14:32:12;;;;;;;1.17;0.87;;;17.70;99.90;;;;;;4901100;29;20230;-66
2022/06/30 14:34:40;;;;;;;1.83;0.70;;;17.60;99.90;;;;;;4901021;29;20664;-65
2022/06/30 14:37:08;;;;;;;1.00;0.50;;;17.50;99.90;;;;;;4900882;29;20572;-65
2022/06/30 14:39:36;;;;;;;2.47;1.10;;;17.20;99.90;;;;;;4901083;29;20214;-64
2022/06/30 14:44:47;;;;;;;0.67;0.50;;;16.80;99.90;;;;;;4900832;29;20561;-65
2022/06/30 14:47:14;;;;;;;3.50;0.50;;;16.60;99.90;;;;;;4900787;29;20305;-70
2022/06/30 14:49:42;;;;;;;0.97;0.67;;;16.50;99.90;;;;;;4900973;29;20207;-64
2022/06/30 14:52:09;;;;;;;1.73;0.70;;;16.40;99.90;;;;;;4900766;29;20241;-65
2022/06/30 14:54:36;;;;;;;1.30;0.50;;;16.40;99.90;;;;;;4900638;29;20736;-65
2022/06/30 14:57:03;;;;;;;2.03;0.80;;;16.20;99.90;;;;;;4900722;29;20214;-64
2022/06/30 14:59:30;;;;;;;0.70;0.60;;;16.20;99.90;;;;;;4900736;29;20294;-64
2022/06/30 15:01:58;;;;;;;2.70;0.50;;;16.10;99.90;;;;;;4900325;29;20706;-64
2022/06/30 15:04:24;;;;;;;4.20;0.70;;;16.00;99.90;;;;;;4900857;29;20213;-64
2022/06/30 15:06:56;;;;;;;0.63;0.43;;;16.10;99.90;;;;;;4900353;29;20618;-64
2022/06/30 15:09:23;;;;;;;3.77;0.67;;;16.10;99.90;;;;;;4900481;29;20266;-64
2022/06/30 15:11:50;;;;;;;2.67;0.70;;;16.00;99.90;;;;;;4900452;29;20238;-64
2022/06/30 15:14:17;;;;;;;0.90;0.60;;;15.90;99.90;;;;;;4900130;29;20237;-64
2022/06/30 15:16:43;;;;;;;0.80;0.63;;;15.80;99.90;;;;;;4900459;29;20214;-64
2022/06/30 15:19:11;;;;;;;0.57;0.40;;;15.80;99.90;;;;;;4900689;29;20218;-64
2022/06/30 15:24:24;;;;;;;0.50;0.37;;;15.60;99.90;;;;;;4900163;29;20214;-67
2022/06/30 15:26:51;;;;;;;1.13;0.30;;;15.70;99.90;;;;;;4899972;29;20554;-65
2022/06/30 15:29:18;;;;;;;0.80;0.40;;;15.70;99.90;;;;;;4900015;29;20382;-72
2022/06/30 15:31:56;;;;;;;0.93;0.30;;;15.70;99.90;;;;;;4899770;29;20302;-65
2022/06/30 15:34:24;;;;;;;0.50;0.40;;;15.70;99.90;;;;;;4899144;29;20241;-65
2022/06/30 15:36:51;;;;;;;0.30;0.30;;;15.60;99.90;;;;;;4899735;29;20213;-64
2022/06/30 15:39:18;;;;;;;0.60;0.47;;;15.70;99.90;;;;;;4899898;29;20215;-70
2022/06/30 15:41:47;;;;;;;1.30;0.57;;;15.80;99.90;;;;;;4899974;29;20234;-66
2022/06/30 15:44:14;;;;;;;0.93;0.40;;;15.80;99.90;;;;;;4899882;29;20218;-65
2022/06/30 15:46:41;;;;;;;1.70;0.43;;;15.90;99.90;;;;;;4900024;29;20211;-65
2022/06/30 15:49:09;;;;;;;0.40;0.30;;;16.00;99.90;;;;;;4899808;29;20218;-65
2022/06/30 15:51:36;;;;;;;1.50;0.40;;;16.00;99.90;;;;;;4899185;29;20210;-69
2022/06/30 15:54:03;;;;;;;1.27;0.50;;;16.00;99.90;;;;;;4899181;29;20325;-65
2022/06/30 15:56:30;;;;;;;0.60;0.40;;;16.10;99.90;;;;;;4899722;29;20217;-65
2022/06/30 15:59:00;;;;;;;0.97;0.50;;;16.10;99.90;;;;;;4899528;29;20219;-65
2022/06/30 16:01:27;;;;;;;0.57;0.47;;;16.10;99.90;;;;;;4899303;29;20688;-66
2022/06/30 16:03:55;;;;;;;0.60;0.50;;;16.00;99.90;;;;;;4899163;29;20670;-64
2022/06/30 16:06:23;;;;;;;1.40;0.70;;;16.00;99.90;;;;;;4898729;29;20697;-64
2022/06/30 16:08:50;;;;;;;0.70;0.40;;;16.00;99.90;;;;;;4899121;29;20218;-65
2022/06/30 16:11:17;;;;;;;2.20;0.77;;;16.10;99.90;;;;;;4899236;29;20220;-64
2022/06/30 16:13:45;;;;;;;0.50;0.43;;;16.20;99.90;;;;;;4898744;29;20713;-66
2022/06/30 16:16:13;;;;;;;0.93;0.50;;;16.10;99.90;;;;;;4899078;29;20614;-65
2022/06/30 16:18:40;;;;;;;1.23;0.73;;;16.10;99.90;;;;;;4899104;29;20210;-67
2022/06/30 16:21:07;;;;;;;0.80;0.50;;;16.20;99.90;;;;;;4898615;29;20210;-64
2022/06/30 16:23:36;;;;;;;1.80;0.67;;;16.20;99.90;;;;;;4899116;29;20321;-65
2022/06/30 16:26:03;;;;;;;1.07;0.50;;;16.10;99.90;;;;;;4899129;29;20244;-70
2022/06/30 16:28:31;;;;;;;1.97;0.57;;;16.10;99.90;;;;;;4898625;29;20241;-65
2022/06/30 16:30:58;;;;;;;0.90;0.50;;;16.30;99.90;;;;;;4898418;29;20214;-66
2022/06/30 16:33:26;;;;;;;0.70;0.63;;;16.30;99.90;;;;;;4898275;29;20325;-64
2022/06/30 16:35:53;;;;;;;1.33;0.60;;;16.40;99.90;;;;;;4898864;29;20248;-72
2022/06/30 16:38:20;;;;;;;1.13;0.70;;;16.40;99.90;;;;;;4898811;29;20740;-65
2022/06/30 16:40:46;;;;;;;0.97;0.50;;;16.40;99.90;;;;;;4898796;29;20210;-64
2022/06/30 16:43:15;;;;;;;1.50;0.63;;;16.40;99.90;;;;;;4898426;29;20234;-64
2022/06/30 16:45:42;;;;;;;1.33;0.60;;;16.40;99.90;;;;;;4898413;29;20221;-65
2022/06/30 16:48:09;;;;;;;2.20;0.50;;;16.40;99.90;;;;;;4898546;29;20574;-67
2022/06/30 16:50:37;;;;;;;1.73;0.53;;;16.30;99.90;;;;;;4899038;29;20216;-68
2022/06/30 16:53:04;;;;;;;1.53;0.40;;;16.30;99.90;;;;;;4898380;29;20230;-64
2022/06/30 16:55:31;;;;;;;1.03;0.60;;;16.30;99.90;;;;;;4898313;29;20244;-69
2022/06/30 16:57:59;;;;;;;0.77;0.57;;;16.30;99.90;;;;;;4898628;29;20221;-65
2022/06/30 17:00:26;;;;;;;0.53;0.33;;;16.40;99.90;;;;;;4898408;29;20210;-70
2022/06/30 17:02:53;;;;;;;0.60;0.40;;;16.40;99.90;;;;;;4898282;29;20282;-69
2022/06/30 17:05:20;;;;;;;1.70;0.50;;;16.30;99.90;;;;;;4898392;29;20218;-66
2022/06/30 17:07:48;;;;;;;0.70;0.47;;;16.20;99.90;;;;;;4898187;29;20664;-70
2022/06/30 17:10:15;;;;;;;1.73;0.97;;;16.10;99.90;;;;;;4898023;29;20300;-66
2022/06/30 17:12:42;;;;;;;2.67;0.53;;;16.10;99.90;;;;;;4898069;29;20237;-70
2022/06/30 17:15:10;;;;;;;1.00;0.50;;;16.10;99.90;;;;;;4898069;29;20596;-66
2022/06/30 17:17:38;;;;;;;1.17;0.60;;;16.10;99.90;;;;;;4898422;29;20228;-66
2022/06/30 17:20:06;;;;;;;0.93;0.50;;;16.00;99.90;;;;;;4898105;29;20304;-73
2022/06/30 17:22:33;;;;;;;1.63;0.60;;;16.00;99.90;;;;;;4897931;29;20230;-71
2022/06/30 17:25:01;;;;;;;0.87;0.50;;;15.80;99.90;;;;;;4897799;29;20666;-64
2022/06/30 17:27:28;;;;;;;0.77;0.53;;;15.80;99.90;;;;;;4898035;29;20206;-71
2022/06/30 17:29:56;;;;;;;1.43;0.70;;;15.90;99.90;;;;;;4898173;29;20610;-67
2022/06/30 17:32:24;;;;;;;2.20;0.53;;;15.80;99.90;;;;;;4898151;29;20230;-70
2022/06/30 17:34:51;;;;;;;1.17;0.90;;;15.70;99.90;;;;;;4897720;29;20803;-68
2022/06/30 17:37:18;;;;;;;1.07;0.87;;;15.80;99.90;;;;;;4897836;29;20234;-71
2022/06/30 17:39:45;;;;;;;1.27;0.40;;;15.80;99.90;;;;;;4898011;29;20221;-66
2022/06/30 17:42:13;;;;;;;0.83;0.50;;;15.80;99.90;;;;;;4897568;29;20234;-64
2022/06/30 17:44:40;;;;;;;2.83;1.10;;;15.70;99.90;;;;;;4898100;29;20206;-69
2022/06/30 17:47:07;;;;;;;0.80;0.70;;;15.80;99.90;;;;;;4898115;29;20274;-64
2022/06/30 17:49:34;;;;;;;0.90;0.40;;;15.80;99.90;;;;;;4897693;29;20215;-68
2022/06/30 17:52:01;;;;;;;0.73;0.50;;;15.90;99.90;;;;;;4897599;29;20238;-65
2022/06/30 17:54:28;;;;;;;0.90;0.50;;;15.90;99.90;;;;;;4897380;29;20210;-73
2022/06/30 17:56:55;;;;;;;0.73;0.60;;;15.90;99.90;;;;;;4899136;29;20210;-66
2022/06/30 17:59:23;;;;;;;0.73;0.43;;;15.80;99.90;;;;;;4901866;29;20220;-67
2022/06/30 18:01:50;;;;;;;0.93;0.60;;;15.80;99.90;;;;;;4901574;29;20322;-66
2022/06/30 18:04:16;;;;;;;1.27;0.50;;;15.80;99.90;;;;;;4901665;29;20296;-64
2022/06/30 18:12:13;;;;;;;0.90;0.43;;;15.70;99.90;;;;;;4901203;29;20361;-70
2022/06/30 18:14:41;;;;;;;0.93;0.50;;;15.60;99.90;;;;;;4901259;29;20242;-65
2022/06/30 18:17:08;;;;;;;1.10;0.50;;;15.60;99.90;;;;;;4901364;29;20211;-67
2022/06/30 18:19:35;;;;;;;1.83;0.70;;;15.60;99.90;;;;;;4901308;29;20211;-69
2022/06/30 18:22:02;;;;;;;1.60;0.70;;;15.60;99.90;;;;;;4901037;29;20234;-70
2022/06/30 18:24:29;;;;;;;2.40;0.57;;;15.60;99.90;;;;;;4901455;29;20214;-69
2022/06/30 18:26:56;;;;;;;2.43;0.77;;;15.50;99.90;;;;;;4901267;29;20213;-64
2022/06/30 18:29:23;;;;;;;0.60;0.50;;;15.50;99.90;;;;;;4900991;29;20206;-68
2022/06/30 18:31:52;;;;;;;2.43;0.53;;;15.60;99.90;;;;;;4900794;29;20234;-66
2022/06/30 18:34:19;;;;;;;1.70;0.70;;;15.60;99.90;;;;;;4900772;29;20233;-66
2022/06/30 18:36:45;;;;;;;1.20;0.60;;;15.50;99.90;;;;;;4900816;29;20238;-70
2022/06/30 18:39:12;;;;;;;0.97;0.70;;;15.60;99.90;;;;;;4900995;29;20211;-65
2022/06/30 18:41:39;;;;;;;1.80;0.70;;;15.50;99.90;;;;;;4900939;29;20216;-67
2022/06/30 18:44:06;;;;;;;1.00;0.50;;;15.50;99.90;;;;;;4901211;29;20766;-65
2022/06/30 18:46:34;;;;;;;2.90;0.60;;;15.60;99.90;;;;;;4900666;29;20210;-69
2022/06/30 18:49:05;;;;;;;1.20;0.50;;;15.60;99.90;;;;;;4900621;29;20305;-65
2022/06/30 18:51:33;;;;;;;1.07;0.80;;;15.60;99.90;;;;;;4900644;29;20301;-68
2022/06/30 18:54:00;;;;;;;2.63;1.00;;;15.60;99.90;;;;;;4900602;29;20242;-64
2022/06/30 18:56:32;;;;;;;2.57;0.80;;;15.60;99.90;;;;;;4900486;29;20238;-64
2022/06/30 18:58:59;;;;;;;0.50;0.43;;;15.60;99.90;;;;;;4900521;29;20206;-64
2022/06/30 19:01:26;;;;;;;1.20;0.83;;;15.60;99.90;;;;;;4900443;29;20215;-68
2022/06/30 19:03:53;;;;;;;0.70;0.60;;;15.50;99.90;;;;;;4900624;29;20207;-65
2022/06/30 19:06:21;;;;;;;3.03;0.90;;;15.60;99.90;;;;;;4900775;29;20333;-64
2022/06/30 19:08:48;;;;;;;0.77;0.47;;;15.70;99.90;;;;;;4900454;29;20301;-68
2022/06/30 19:11:15;;;;;;;0.80;0.50;;;15.60;99.90;;;;;;4900551;29;20207;-66
2022/06/30 19:13:42;;;;;;;2.37;0.87;;;15.50;99.90;;;;;;4900445;29;20252;-64
2022/06/30 19:16:10;;;;;;;2.97;0.87;;;15.50;99.90;;;;;;4900246;29;20575;-68
2022/06/30 19:18:39;;;;;;;2.93;0.80;;;15.40;99.90;;;;;;4900490;29;20210;-67
2022/06/30 19:21:08;;;;;;;1.43;0.60;;;15.30;99.90;;;;;;4900143;29;20674;-69
2022/06/30 19:23:38;;;;;;;1.20;0.60;;;15.40;99.90;;;;;;4900209;29;20230;-66
2022/06/30 19:26:07;;;;;;;1.27;0.63;;;15.50;99.90;;;;;;4900269;29;20210;-66
2022/06/30 19:28:38;;;;;;;2.93;0.83;;;15.50;99.90;;;;;;4899891;29;20573;-71
2022/06/30 19:31:08;;;;;;;1.53;0.90;;;15.50;99.90;;;;;;4899926;29;20211;-71
2022/06/30 19:33:36;;;;;;;1.70;0.80;;;15.30;99.90;;;;;;4899726;29;20231;-72
2022/06/30 19:36:03;;;;;;;1.63;0.80;;;15.30;99.90;;;;;;4899731;29;20234;-71
2022/06/30 19:38:31;;;;;;;4.53;0.67;;;15.30;99.90;;;;;;4899814;29;20214;-68
2022/06/30 19:41:00;;;;;;;1.50;0.90;;;15.30;99.90;;;;;;4899948;29;20214;-66
2022/06/30 19:43:28;;;;;;;0.97;0.80;;;15.30;99.90;;;;;;4899635;29;20238;-70
2022/06/30 19:45:55;;;;;;;2.23;0.90;;;15.30;99.90;;;;;;4899390;29;20214;-70
2022/06/30 19:48:22;;;;;;;2.53;0.80;;;15.30;99.90;;;;;;4899817;29;20256;-71
2022/06/30 19:50:49;;;;;;;1.23;0.70;;;15.40;99.90;;;;;;4899780;29;20210;-69
2022/06/30 19:53:16;;;;;;;2.70;0.70;;;15.40;99.90;;;;;;4899267;29;20261;-66
2022/06/30 19:55:42;;;;;;;1.30;0.90;;;15.20;99.90;;;;;;4899432;29;20242;-69
2022/06/30 19:58:11;;;;;;;1.30;0.73;;;15.20;99.90;;;;;;4894309;29;20213;-73
2022/06/30 20:00:38;;;;;;;2.63;0.87;;;15.10;99.90;;;;;;4886595;29;20238;-65
2022/06/30 20:05:49;;;;;;;1.07;0.70;;;15.10;99.90;;;;;;4890218;29;20225;-70
2022/06/30 20:13:45;;;;;;;2.07;1.00;;;15.10;99.90;;;;;;4889907;29;20277;-73
2022/06/30 20:16:13;;;;;;;1.70;1.00;;;15.00;99.90;;;;;;4891476;29;20248;-74
2022/06/30 20:18:40;;;;;;;1.00;0.80;;;15.00;99.90;;;;;;4896024;29;20206;-73
2022/06/30 20:21:07;;;;;;;1.27;0.80;;;14.90;99.90;;;;;;4887952;29;20214;-70
2022/06/30 20:23:34;;;;;;;1.50;1.03;;;14.90;99.90;;;;;;4890440;29;20235;-71
2022/06/30 20:26:01;;;;;;;1.30;1.00;;;14.90;99.90;;;;;;4893700;29;20221;-73
2022/06/30 20:28:28;;;;;;;1.10;0.73;;;14.90;99.90;;;;;;4895055;29;20215;-72